Terminal Aerodrome Forecast
Issued by NWS

Home | Current Version | Previous Version | Text Only | Print | Product List | Glossary On
Versions: 1 2 3 4 5 6 7 8 9 10 11 12 13 14 15 16 17
692
FTUS43 KJKL 301736
TAFSME
TAF
KSME 301736Z 3018/0118 15004KT 6SM -SHRA OVC070
     FM302100 09005KT 5SM -SHRA VCTS OVC050CB
     FM011000 00000KT 2SM -SHRA VCTS OVC025CB
     FM011500 23006KT P6SM VCSH BKN035=

USA.gov is the U.S. government's official web portal to all federal, state and local government web resources and services.